< < Back
Terminal Aerodrome Forecast


Current Version              Previous Versions:   1  2  3  4  5  6  7  8  9  

Terminal Aerodrome Forecast

089
FTUS42 KJAX 311700
TAFSSI
TAF
KSSI 311722Z 3118/0118 33009KT P6SM SCT040
     FM010000 27006KT P6SM SKC
     FM010800 29014G24KT P6SM SCT035
     FM011400 30025G35KT P6SM SCT050=



Latest METAR

715
SAUS70 KWBC 312100 RRL
MTRSSI
METAR KSSI 312053Z AUTO 27005KT 10SM FEW065 22/09 A2980 RMK AO2 SLP089
T02170089 55010


USA.gov is the U.S. government's official web portal to all federal, state and local government web resources and services.